KBXK

Buckeye Municipal Airport

Buckeye, Arizona, USA
METAR KBXK 222015Z AUTO 14007KT 10SM CLR 28/12 A2986 RMK AO1
Observed Flight Rules
Oct-22 @ 20:15 UTC (34 minutes ago) Visual Flight Rules
Wind Visibility Clouds
140° at 7 knots 10 miles
  • Clear skies
Temperatures Readings
Current 28°C / 82°F
Dewpoint 12°C / 54°F
Humidity 37%
Altimeter 29.86" Hg
Pressure 1011 hPa
Elevation 315
METAR KBXK 222015Z AUTO 14007KT 10SM CLR 28/12 A2986 RMK AO1
Observed Flight Rules
Oct-22 @ 20:15 UTC
(34 minutes ago)
VFR
Wind Visibility
140° at 7 knots 10 miles
Clouds
  • Clear skies
Temperature Dewpoint
28°C / 82°F 12°C / 54°F
Humidity Altimeter Pressure
37% 29.86" Hg 1011 hPa